Time;durP1;ratioP1;P1;durP2;ratioP2;P2;SDS_P1;SDS_P2;PMS_P1;PMS_P2;Temp;Humidity;BMP_temperature;BMP_pressure;BME280_temperature;BME280_humidity;BME280_pressure;Samples;Min_cycle;Max_cycle;Signal;HPM_P1;HPM_P2
2022/06/05 00:01:39;;;;;;;;;;;13.40;99.90;;;;;;4997308;28;19910;-75
2022/06/05 00:04:08;;;;;;;;;;;13.60;99.90;;;;;;4997451;28;20332;-75
2022/06/05 00:06:57;;;;;;;;;;;13.60;99.90;;;;;;4996713;28;19972;-74
2022/06/05 00:09:33;;;;;;;;;;;13.70;99.90;;;;;;4997195;28;19909;-75
2022/06/05 00:12:00;;;;;;;;;;;13.90;99.90;;;;;;4997262;28;19945;-75
2022/06/05 00:14:27;;;;;;;;;;;13.90;99.90;;;;;;4997103;28;19909;-74
2022/06/05 00:16:54;;;;;;;;;;;13.90;99.90;;;;;;4996987;28;19924;-75
2022/06/05 00:19:21;;;;;;;;;;;13.90;99.90;;;;;;4996936;28;20061;-74
2022/06/05 00:21:49;;;;;;;;;;;14.00;99.90;;;;;;4996388;28;19916;-74
2022/06/05 00:24:16;;;;;;;;;;;14.20;99.90;;;;;;4996974;28;19963;-75
2022/06/05 00:26:42;;;;;;;;;;;14.30;99.90;;;;;;4997283;28;19910;-75
2022/06/05 00:29:15;;;;;;;;;;;14.40;99.90;;;;;;4996680;28;19995;-75
2022/06/05 00:32:18;;;;;;;;;;;14.30;99.90;;;;;;4996645;28;20004;-76
2022/06/05 00:34:44;;;;;;;;;;;14.20;99.90;;;;;;4994540;28;19910;-76
2022/06/05 00:37:11;;;;;;;;;;;14.10;99.90;;;;;;4995756;28;19960;-76
2022/06/05 00:39:50;;;;;;;;;;;14.20;99.90;;;;;;4996456;28;20379;-76
2022/06/05 00:42:17;;;;;;;;;;;14.30;99.90;;;;;;4999090;28;20250;-75
2022/06/05 00:44:49;;;;;;;;;;;14.30;99.90;;;;;;4996831;28;19910;-75
2022/06/05 00:47:18;;;;;;;;;;;14.50;99.90;;;;;;4996883;28;20364;-75
2022/06/05 00:49:57;;;;;;;;;;;14.60;99.90;;;;;;4997519;28;19917;-75
2022/06/05 00:52:25;;;;;;;;;;;14.70;99.90;;;;;;4997131;28;19957;-74
2022/06/05 00:54:52;;;;;;;;;;;14.80;99.90;;;;;;4997137;28;19910;-75
2022/06/05 00:57:20;;;;;;;;;;;14.90;99.90;;;;;;4996647;28;19916;-75
2022/06/05 00:59:47;;;;;;;;;;;15.20;99.90;;;;;;4996084;28;19933;-75
2022/06/05 01:02:15;;;;;;;;;;;15.60;99.90;;;;;;4996869;28;19910;-75
2022/06/05 01:04:43;;;;;;;;;;;15.70;99.90;;;;;;4995862;28;20385;-75
2022/06/05 01:07:11;;;;;;;;;;;15.90;99.90;;;;;;4995368;28;19910;-75
2022/06/05 01:09:40;;;;;;;;;;;16.20;99.90;;;;;;4995793;28;20017;-75
2022/06/05 01:12:15;;;;;;;;;;;16.40;99.90;;;;;;4996105;28;19917;-75
2022/06/05 01:14:42;;;;;;;;;;;16.70;99.90;;;;;;4995957;28;19909;-74
2022/06/05 01:17:27;;;;;;;;;;;16.80;99.90;;;;;;4995856;28;19913;-74
2022/06/05 01:20:14;;;;;;;;;;;16.70;99.90;;;;;;4995517;28;20340;-75
2022/06/05 01:22:43;;;;;;;;;;;16.30;99.90;;;;;;4995812;28;19914;-74
2022/06/05 01:25:30;;;;;;;;;;;16.10;99.90;;;;;;4995764;28;19914;-75
2022/06/05 01:27:59;;;;;;;;;;;16.00;99.90;;;;;;4995919;28;19964;-75
2022/06/05 01:30:26;;;;;;;;;;;15.90;99.90;;;;;;4995404;28;19910;-74
2022/06/05 01:33:01;;;;;;;;;;;15.90;99.90;;;;;;4995669;28;20276;-74
2022/06/05 01:35:39;;;;;;;;;;;15.70;99.90;;;;;;4995138;28;19933;-74
2022/06/05 01:38:29;;;;;;;;;;;15.80;99.90;;;;;;4995369;28;19917;-74
2022/06/05 01:40:57;;;;;;;;;;;15.80;99.90;;;;;;4994928;28;19925;-74
2022/06/05 01:43:31;;;;;;;;;;;15.90;99.90;;;;;;4995342;28;19916;-74
2022/06/05 01:46:03;;;;;;;;;;;16.00;99.90;;;;;;4995395;28;19996;-75
2022/06/05 01:48:34;;;;;;;;;;;16.00;99.90;;;;;;4995235;28;19909;-75
2022/06/05 01:51:06;;;;;;;;;;;15.90;99.90;;;;;;4994606;28;19950;-75
2022/06/05 01:53:35;;;;;;;;;;;15.90;99.90;;;;;;4994940;28;19926;-74
2022/06/05 01:56:02;;;;;;;;;;;16.00;99.90;;;;;;4995288;28;19909;-76
2022/06/05 01:58:48;;;;;;;;;;;16.10;99.90;;;;;;4995252;28;19992;-74
2022/06/05 02:01:20;;;;;;;;;;;16.00;99.90;;;;;;4995182;28;19925;-74
2022/06/05 02:03:51;;;;;;;;;;;16.10;99.90;;;;;;4995086;28;20388;-74
2022/06/05 02:06:26;;;;;;;;;;;16.10;99.90;;;;;;4994851;28;19909;-74
2022/06/05 02:09:02;;;;;;;;;;;16.10;99.90;;;;;;4994856;28;19910;-74
2022/06/05 02:11:31;;;;;;;;;;;16.00;99.90;;;;;;4994790;28;19990;-74
2022/06/05 02:14:03;;;;;;;;;;;16.00;99.90;;;;;;4994766;28;19910;-74
2022/06/05 02:16:31;;;;;;;;;;;16.10;99.90;;;;;;4994923;28;19916;-75
2022/06/05 02:18:59;;;;;;;;;;;16.00;99.90;;;;;;4994663;28;19925;-74
2022/06/05 02:21:26;;;;;;;;;;;16.00;99.90;;;;;;4994743;28;19914;-74
2022/06/05 02:23:53;;;;;;;;;;;16.20;99.90;;;;;;4994559;28;20004;-74
2022/06/05 02:26:20;;;;;;;;;;;16.10;99.90;;;;;;4994770;28;20345;-74
2022/06/05 02:28:47;;;;;;;;;;;16.10;99.90;;;;;;4994623;28;20308;-74
2022/06/05 02:31:35;;;;;;;;;;;16.10;99.90;;;;;;4994437;28;19910;-75
2022/06/05 02:34:14;;;;;;;;;;;16.10;99.90;;;;;;4994624;28;19960;-75
2022/06/05 02:37:00;;;;;;;;;;;16.10;99.90;;;;;;4994575;28;19920;-74
2022/06/05 02:39:33;;;;;;;;;;;16.10;99.90;;;;;;4994461;28;20339;-75
2022/06/05 02:42:18;;;;;;;;;;;16.30;99.90;;;;;;4994594;28;19917;-74
2022/06/05 02:44:59;;;;;;;;;;;16.40;99.90;;;;;;5009201;28;19965;-75
2022/06/05 02:47:49;;;;;;;;;;;16.30;99.90;;;;;;4994445;28;19909;-75
2022/06/05 02:50:26;;;;;;;;;;;16.40;99.90;;;;;;4994213;28;19992;-76
2022/06/05 02:52:59;;;;;;;;;;;16.50;99.90;;;;;;4993799;28;19922;-75
2022/06/05 02:55:26;;;;;;;;;;;16.50;99.90;;;;;;4994139;28;19910;-75
2022/06/05 02:57:52;;;;;;;;;;;16.40;99.90;;;;;;4994049;28;19914;-75
2022/06/05 03:00:20;;;;;;;;;;;16.30;99.90;;;;;;4994196;28;19922;-75
2022/06/05 03:05:33;;;;;;;;;;;16.20;99.90;;;;;;4993989;28;20331;-74
2022/06/05 03:08:00;;;;;;;;;;;16.10;99.90;;;;;;4993985;28;19953;-74
2022/06/05 03:10:27;;;;;;;;;;;16.10;99.90;;;;;;4994014;28;20407;-74
2022/06/05 03:12:54;;;;;;;;;;;16.00;99.90;;;;;;4993998;28;19913;-76
2022/06/05 03:15:21;;;;;;;;;;;15.90;99.90;;;;;;4994044;28;19914;-76
2022/06/05 03:17:48;;;;;;;;;;;15.80;99.90;;;;;;4993739;28;19936;-75
2022/06/05 03:20:15;;;;;;;;;;;16.00;99.90;;;;;;4993570;28;19969;-76
2022/06/05 03:22:42;;;;;;;;;;;15.90;99.90;;;;;;4993795;28;19953;-75
2022/06/05 03:25:12;;;;;;;;;;;16.00;99.90;;;;;;4993790;28;19941;-75
2022/06/05 03:27:38;;;;;;;;;;;16.00;99.90;;;;;;4993705;28;20281;-75
2022/06/05 03:30:05;;;;;;;;;;;16.00;99.90;;;;;;4995660;28;19936;-74
2022/06/05 03:32:32;;;;;;;;;;;15.90;99.90;;;;;;4997795;28;19910;-74
2022/06/05 03:34:59;;;;;;;;;;;15.90;99.90;;;;;;4997850;28;20001;-75
2022/06/05 03:37:26;;;;;;;;;;;15.90;99.90;;;;;;4997788;28;19909;-74
2022/06/05 03:39:52;;;;;;;;;;;15.90;99.90;;;;;;4997631;28;20380;-74
2022/06/05 03:42:19;;;;;;;;;;;15.80;99.90;;;;;;4997689;28;20009;-74
2022/06/05 03:44:46;;;;;;;;;;;15.80;99.90;;;;;;4997419;28;19910;-74
2022/06/05 03:47:12;;;;;;;;;;;15.80;99.90;;;;;;4997559;28;19917;-74
2022/06/05 03:49:39;;;;;;;;;;;15.70;99.90;;;;;;4997371;28;19949;-75
2022/06/05 03:52:07;;;;;;;;;;;15.70;99.90;;;;;;4997591;28;20453;-74
2022/06/05 03:54:34;;;;;;;;;;;15.70;99.90;;;;;;4997388;28;19917;-75
2022/06/05 03:57:02;;;;;;;;;;;15.70;99.90;;;;;;4997439;28;19914;-74
2022/06/05 03:59:28;;;;;;;;;;;15.80;99.90;;;;;;4979753;28;20425;-74
2022/06/05 04:01:55;;;;;;;;;;;15.80;99.90;;;;;;4997122;28;19941;-74
2022/06/05 04:04:23;;;;;;;;;;;15.90;99.90;;;;;;4997324;28;19959;-74
2022/06/05 04:06:49;;;;;;;;;;;15.90;99.90;;;;;;4997294;28;19916;-74
2022/06/05 04:09:16;;;;;;;;;;;15.90;99.90;;;;;;4997023;28;19982;-74
2022/06/05 04:11:43;;;;;;;;;;;15.80;99.90;;;;;;4997076;28;19956;-74
2022/06/05 04:14:10;;;;;;;;;;;15.80;99.90;;;;;;4997109;28;19910;-74
2022/06/05 04:16:39;;;;;;;;;;;15.80;99.90;;;;;;4997173;28;19910;-74
2022/06/05 04:19:05;;;;;;;;;;;15.80;99.90;;;;;;4996829;28;19910;-74
2022/06/05 04:21:35;;;;;;;;;;;15.70;99.90;;;;;;4996881;28;20357;-74
2022/06/05 04:24:03;;;;;;;;;;;15.80;99.90;;;;;;4996925;28;19937;-74
2022/06/05 04:26:31;;;;;;;;;;;15.80;99.90;;;;;;4996776;28;19910;-74
2022/06/05 04:28:58;;;;;;;;;;;15.70;99.90;;;;;;4996657;28;19916;-74
2022/06/05 04:31:33;;;;;;;;;;;15.70;99.90;;;;;;4996865;28;19956;-74
2022/06/05 04:34:01;;;;;;;;;;;15.80;99.90;;;;;;4996926;28;19993;-74
2022/06/05 04:36:28;;;;;;;;;;;15.80;99.90;;;;;;4996454;28;20007;-74
2022/06/05 04:38:55;;;;;;;;;;;15.80;99.90;;;;;;4996530;28;19910;-74
2022/06/05 04:41:22;;;;;;;;;;;15.80;99.90;;;;;;4995110;28;20341;-74
2022/06/05 04:43:49;;;;;;;;;;;15.80;99.90;;;;;;4996313;28;19917;-75
2022/06/05 04:46:16;;;;;;;;;;;15.80;99.90;;;;;;4996582;28;20379;-74
2022/06/05 04:48:43;;;;;;;;;;;15.80;99.90;;;;;;4996526;28;19910;-74
2022/06/05 04:51:12;;;;;;;;;;;15.70;99.90;;;;;;4996472;28;20341;-74
2022/06/05 04:53:39;;;;;;;;;;;15.70;99.90;;;;;;4996184;28;20423;-74
2022/06/05 04:56:08;;;;;;;;;;;15.70;99.90;;;;;;4996544;28;19910;-73
2022/06/05 04:58:36;;;;;;;;;;;15.60;99.90;;;;;;4996132;28;19910;-75
2022/06/05 05:01:09;;;;;;;;;;;15.50;99.90;;;;;;4996213;28;20004;-74
2022/06/05 05:03:35;;;;;;;;;;;15.40;99.90;;;;;;4996128;28;20396;-74
2022/06/05 05:06:02;;;;;;;;;;;15.30;99.90;;;;;;4996345;28;19910;-74
2022/06/05 05:08:29;;;;;;;;;;;15.30;99.90;;;;;;4996163;28;19910;-74
2022/06/05 05:10:56;;;;;;;;;;;15.30;99.90;;;;;;4996161;28;19917;-74
2022/06/05 05:13:22;;;;;;;;;;;15.30;99.90;;;;;;4995930;28;19973;-74
2022/06/05 05:15:49;;;;;;;;;;;15.30;99.90;;;;;;4995996;28;20048;-74
2022/06/05 05:18:16;;;;;;;;;;;15.30;99.90;;;;;;4995986;28;19910;-74
2022/06/05 05:20:43;;;;;;;;;;;15.20;99.90;;;;;;4995870;28;19925;-74
2022/06/05 05:23:10;;;;;;;;;;;15.20;99.90;;;;;;4995756;28;19910;-74
2022/06/05 05:25:37;;;;;;;;;;;15.20;99.90;;;;;;4995483;28;20008;-74
2022/06/05 05:28:06;;;;;;;;;;;15.20;99.90;;;;;;4995868;28;19910;-74
2022/06/05 05:30:33;;;;;;;;;;;15.20;99.90;;;;;;4995654;28;20284;-75
2022/06/05 05:33:00;;;;;;;;;;;15.20;99.90;;;;;;4995581;28;20316;-74
2022/06/05 05:35:26;;;;;;;;;;;15.10;99.90;;;;;;4995630;28;19956;-74
2022/06/05 05:37:53;;;;;;;;;;;15.10;99.90;;;;;;4995503;28;19913;-75
2022/06/05 05:43:05;;;;;;;;;;;15.10;99.90;;;;;;4995749;28;20050;-74
2022/06/05 05:45:31;;;;;;;;;;;15.00;99.90;;;;;;4995238;28;20353;-74
2022/06/05 05:47:58;;;;;;;;;;;15.00;99.90;;;;;;4995420;28;19964;-74
2022/06/05 05:50:25;;;;;;;;;;;15.00;99.90;;;;;;4995526;28;19909;-74
2022/06/05 05:52:52;;;;;;;;;;;15.00;99.90;;;;;;4994849;28;19922;-73
2022/06/05 05:55:20;;;;;;;;;;;15.00;99.90;;;;;;4995305;28;19925;-74
2022/06/05 05:57:47;;;;;;;;;;;15.00;99.90;;;;;;4994950;28;19909;-74
2022/06/05 06:00:15;;;;;;;;;;;14.90;99.90;;;;;;4995165;28;20012;-74
2022/06/05 06:02:42;;;;;;;;;;;14.90;99.90;;;;;;4995261;28;20403;-74
2022/06/05 06:05:11;;;;;;;;;;;14.90;99.90;;;;;;4995096;28;19937;-73
2022/06/05 06:07:39;;;;;;;;;;;14.80;99.90;;;;;;4994948;28;19913;-74
2022/06/05 06:10:07;;;;;;;;;;;14.80;99.90;;;;;;4994914;28;20292;-74
2022/06/05 06:12:34;;;;;;;;;;;14.80;99.90;;;;;;4994784;28;19910;-73
2022/06/05 06:15:01;;;;;;;;;;;14.80;99.90;;;;;;4995044;28;19920;-73
2022/06/05 06:17:28;;;;;;;;;;;14.70;99.90;;;;;;4994845;28;19916;-73
2022/06/05 06:19:54;;;;;;;;;;;14.70;99.90;;;;;;4994668;28;20072;-73
2022/06/05 06:22:21;;;;;;;;;;;14.70;99.90;;;;;;4994847;28;19926;-74
2022/06/05 06:24:48;;;;;;;;;;;14.70;99.90;;;;;;4994893;28;19932;-73
2022/06/05 06:27:15;;;;;;;;;;;14.70;99.90;;;;;;4994684;28;19945;-74
2022/06/05 06:29:42;;;;;;;;;;;14.70;99.90;;;;;;4994409;28;19969;-73
2022/06/05 06:32:09;;;;;;;;;;;14.60;99.90;;;;;;4994553;28;20383;-74
2022/06/05 06:34:36;;;;;;;;;;;14.60;99.90;;;;;;4994717;28;19957;-74
2022/06/05 06:37:03;;;;;;;;;;;14.60;99.90;;;;;;4994428;28;19913;-73
2022/06/05 06:39:29;;;;;;;;;;;14.60;99.90;;;;;;4994508;28;19942;-72
2022/06/05 06:41:56;;;;;;;;;;;14.60;99.90;;;;;;4976747;28;20449;-72
2022/06/05 06:44:23;;;;;;;;;;;14.50;99.90;;;;;;4994434;28;19910;-72
2022/06/05 06:46:49;;;;;;;;;;;14.50;99.90;;;;;;4994463;28;20280;-72
2022/06/05 06:49:16;;;;;;;;;;;14.40;99.90;;;;;;4994415;28;19914;-72
2022/06/05 06:51:43;;;;;;;;;;;14.40;99.90;;;;;;4994140;28;19964;-72
2022/06/05 06:54:10;;;;;;;;;;;14.40;99.90;;;;;;4994335;28;19920;-72
2022/06/05 06:56:37;;;;;;;;;;;14.30;99.90;;;;;;4994155;28;19910;-73
2022/06/05 06:59:04;;;;;;;;;;;14.30;99.90;;;;;;4993966;28;19937;-72
2022/06/05 07:01:31;;;;;;;;;;;14.30;99.90;;;;;;4994053;28;19920;-72
2022/06/05 07:03:57;;;;;;;;;;;14.20;99.90;;;;;;4993595;28;19949;-72
2022/06/05 07:06:24;;;;;;;;;;;14.20;99.90;;;;;;4994225;28;19983;-72
2022/06/05 07:08:51;;;;;;;;;;;14.10;99.90;;;;;;4994065;28;19952;-73
2022/06/05 07:11:18;;;;;;;;;;;14.20;99.90;;;;;;4993982;28;19910;-72
2022/06/05 07:13:45;;;;;;;;;;;14.10;99.90;;;;;;4993708;28;19910;-74
2022/06/05 07:16:12;;;;;;;;;;;14.10;99.90;;;;;;4994110;28;20004;-73
2022/06/05 07:18:41;;;;;;;;;;;14.10;99.90;;;;;;4993880;28;20358;-73
2022/06/05 07:21:18;;;;;;;;;;;14.10;99.90;;;;;;4993854;28;19918;-73
2022/06/05 07:23:45;;;;;;;;;;;14.00;99.90;;;;;;4993652;28;19972;-73
2022/06/05 07:26:13;;;;;;;;;;;14.00;99.90;;;;;;4993761;28;20365;-73
2022/06/05 07:28:40;;;;;;;;;;;14.00;99.90;;;;;;4993747;28;20428;-73
2022/06/05 07:31:07;;;;;;;;;;;14.00;99.90;;;;;;4993866;28;19956;-73
2022/06/05 07:33:35;;;;;;;;;;;13.90;99.90;;;;;;4993471;28;19914;-73
2022/06/05 07:36:03;;;;;;;;;;;13.90;99.90;;;;;;4993598;28;19960;-74
2022/06/05 07:38:30;;;;;;;;;;;13.90;99.90;;;;;;4993718;28;19945;-73
2022/06/05 07:40:57;;;;;;;;;;;13.90;99.90;;;;;;4993827;28;19925;-72
2022/06/05 07:43:24;;;;;;;;;;;13.80;99.90;;;;;;4993513;28;20000;-72
2022/06/05 07:45:51;;;;;;;;;;;13.80;99.90;;;;;;4993476;28;19910;-72
2022/06/05 07:48:20;;;;;;;;;;;13.80;99.90;;;;;;4992249;28;19914;-72
2022/06/05 07:56:17;;;;;;;;;;;13.70;99.90;;;;;;4992139;28;19920;-73
2022/06/05 07:58:44;;;;;;;;;;;13.60;99.90;;;;;;4991536;28;19914;-73
2022/06/05 08:01:11;;;;;;;;;;;13.60;99.90;;;;;;4991240;28;20283;-73
2022/06/05 08:03:37;;;;;;;;;;;13.60;99.90;;;;;;4991434;28;19921;-74
2022/06/05 08:06:04;;;;;;;;;;;13.60;99.90;;;;;;4991581;28;19933;-74
2022/06/05 08:08:31;;;;;;;;;;;13.60;99.90;;;;;;4991422;28;19913;-73
2022/06/05 08:11:04;;;;;;;;;;;13.60;99.90;;;;;;4991458;28;19917;-73
2022/06/05 08:13:31;;;;;;;;;;;13.50;99.90;;;;;;4991186;28;19917;-74
2022/06/05 08:15:58;;;;;;;;;;;13.50;99.90;;;;;;4992492;28;19916;-73
2022/06/05 08:18:25;;;;;;;;;;;13.50;99.90;;;;;;4995137;28;19914;-73
2022/06/05 08:20:52;;;;;;;;;;;13.50;99.90;;;;;;4994932;28;19922;-73
2022/06/05 08:23:19;;;;;;;;;;;13.50;99.90;;;;;;4994925;28;19917;-73
2022/06/05 08:25:45;;;;;;;;;;;13.50;99.90;;;;;;4994643;28;19916;-73
2022/06/05 08:28:12;;;;;;;;;;;13.50;99.90;;;;;;4994424;28;19910;-73
2022/06/05 08:30:39;;;;;;;;;;;13.40;99.90;;;;;;4994865;28;19914;-74
2022/06/05 08:33:06;;;;;;;;;;;13.40;99.90;;;;;;4994758;28;19913;-73
2022/06/05 08:35:32;;;;;;;;;;;13.30;99.90;;;;;;4995354;28;19954;-73
2022/06/05 08:43:44;;;;;;;;;;;13.30;99.90;;;;;;4994361;28;19924;-74
2022/06/05 08:46:16;;;;;;;;;;;13.20;99.90;;;;;;4994652;28;20016;-74
2022/06/05 08:48:53;;;;;;;;;;;13.20;99.90;;;;;;5008671;28;19910;-74
2022/06/05 08:51:23;;;;;;;;;;;13.20;99.90;;;;;;4994390;28;19910;-74
2022/06/05 08:54:04;;;;;;;;;;;13.20;99.90;;;;;;4994331;28;19922;-73
2022/06/05 08:56:36;;;;;;;;;;;13.20;99.90;;;;;;4994197;28;19914;-73
2022/06/05 08:59:22;;;;;;;;;;;13.20;99.90;;;;;;5009286;28;19914;-74
2022/06/05 09:02:01;;;;;;;;;;;13.20;99.90;;;;;;4993488;28;20004;-73
2022/06/05 09:04:50;;;;;;;;;;;13.20;99.90;;;;;;4994591;28;20273;-73
2022/06/05 09:07:19;;;;;;;;;;;13.10;99.90;;;;;;4996227;28;20067;-74
2022/06/05 09:09:58;;;;;;;;;;;13.10;99.90;;;;;;4996049;28;19909;-74
2022/06/05 09:12:33;;;;;;;;;;;13.10;99.90;;;;;;4995827;28;19914;-74
2022/06/05 09:15:04;;;;;;;;;;;13.10;99.90;;;;;;4996017;28;19992;-74
2022/06/05 09:17:31;;;;;;;;;;;13.00;99.90;;;;;;4995413;28;19992;-74
2022/06/05 09:19:58;;;;;;;;;;;13.00;99.90;;;;;;4995862;28;19918;-73
2022/06/05 09:22:25;;;;;;;;;;;13.00;99.90;;;;;;4995911;28;19917;-73
2022/06/05 09:24:51;;;;;;;;;;;13.00;99.90;;;;;;4995798;28;19914;-73
2022/06/05 09:27:24;;;;;;;;;;;12.90;99.90;;;;;;4995033;28;19910;-74
2022/06/05 09:29:54;;;;;;;;;;;12.90;99.90;;;;;;4995629;28;20104;-74
2022/06/05 09:32:33;;;;;;;;;;;12.90;99.90;;;;;;4995243;28;19961;-73
2022/06/05 09:35:03;;;;;;;;;;;12.80;99.90;;;;;;4995698;28;20389;-74
2022/06/05 09:37:30;;;;;;;;;;;12.80;99.90;;;;;;4995257;28;19910;-74
2022/06/05 09:39:58;;;;;;;;;;;12.80;99.90;;;;;;4995467;28;19917;-73
2022/06/05 09:42:29;;;;;;;;;;;12.70;99.90;;;;;;4995400;28;19910;-75
2022/06/05 09:45:11;;;;;;;;;;;12.80;99.90;;;;;;4995504;28;19910;-73
2022/06/05 09:47:55;;;;;;;;;;;12.70;99.90;;;;;;4994515;28;19956;-74
2022/06/05 09:50:29;;;;;;;;;;;12.70;99.90;;;;;;4995443;28;20475;-74
2022/06/05 09:52:56;;;;;;;;;;;12.70;99.90;;;;;;4995053;28;20332;-74
2022/06/05 09:55:43;;;;;;;;;;;12.70;99.90;;;;;;4995346;28;19917;-74
2022/06/05 09:58:28;;;;;;;;;;;12.70;99.90;;;;;;4995155;28;19943;-75
2022/06/05 10:00:56;;;;;;;;;;;12.70;99.90;;;;;;4995073;28;19918;-75
2022/06/05 10:03:25;;;;;;;;;;;12.60;99.90;;;;;;4994219;28;19914;-73
2022/06/05 10:06:11;;;;;;;;;;;12.60;99.90;;;;;;4994660;28;19989;-75
2022/06/05 10:08:42;;;;;;;;;;;12.60;99.90;;;;;;4994872;28;19913;-74
2022/06/05 10:11:22;;;;;;;;;;;12.60;99.90;;;;;;4994832;28;19956;-73
2022/06/05 10:13:52;;;;;;;;;;;12.50;99.90;;;;;;4977002;28;19925;-74
2022/06/05 10:16:26;;;;;;;;;;;12.50;99.90;;;;;;4994527;28;19920;-73
2022/06/05 10:19:25;;;;;;;;;;;12.50;99.90;;;;;;4994760;28;19910;-72
2022/06/05 10:21:58;;;;;;;;;;;12.50;99.90;;;;;;4993161;28;20380;-73
2022/06/05 10:24:28;;;;;;;;;;;12.50;99.90;;;;;;4994792;28;20292;-74
2022/06/05 10:26:57;;;;;;;;;;;12.40;99.90;;;;;;4994533;28;19910;-74
2022/06/05 10:29:26;;;;;;;;;;;12.50;99.90;;;;;;4994618;28;19917;-75
2022/06/05 10:31:53;;;;;;;;;;;12.50;99.90;;;;;;4993787;28;19910;-74
2022/06/05 10:34:22;;;;;;;;;;;12.50;99.90;;;;;;4994816;28;19910;-75
2022/06/05 10:37:07;;;;;;;;;;;12.50;99.90;;;;;;4994645;28;20276;-73
2022/06/05 10:39:38;;;;;;;;;;;12.50;99.90;;;;;;4994199;28;20220;-75
2022/06/05 10:42:15;;;;;;;;;;;12.40;99.90;;;;;;4994358;28;20008;-75
2022/06/05 10:44:48;;;;;;;;;;;12.50;99.90;;;;;;4994401;28;19925;-75
2022/06/05 10:47:31;;;;;;;;;;;12.40;99.90;;;;;;4994014;28;20304;-73
2022/06/05 10:50:10;;;;;;;;;;;12.40;99.90;;;;;;5009539;28;19909;-75
2022/06/05 10:52:37;;;;;;;;;;;12.40;99.90;;;;;;4994048;28;19922;-74
2022/06/05 10:55:19;;;;;;;;;;;12.40;99.90;;;;;;4994414;28;19932;-75
2022/06/05 10:57:54;;;;;;;;;;;12.40;99.90;;;;;;4994086;28;19910;-75
2022/06/05 11:00:21;;;;;;;;;;;12.40;99.90;;;;;;4994192;28;19922;-74
2022/06/05 11:03:08;;;;;;;;;;;12.30;99.90;;;;;;4993742;28;20365;-74
2022/06/05 11:05:52;;;;;;;;;;;12.30;99.90;;;;;;4994020;28;19909;-73
2022/06/05 11:08:32;;;;;;;;;;;12.30;99.90;;;;;;4994188;28;19942;-75
2022/06/05 11:14:08;;;;;;;;;;;12.30;99.90;;;;;;4994603;28;20379;-74
2022/06/05 11:16:57;;;;;;;;;;;12.30;99.90;;;;;;4993543;28;20349;-74
2022/06/05 11:19:31;;;;;;;;;;;12.20;99.90;;;;;;4994010;28;19910;-75
2022/06/05 11:21:59;;;;;;;;;;;12.20;99.90;;;;;;4994069;28;20377;-73
2022/06/05 11:24:29;;;;;;;;;;;12.20;99.90;;;;;;4994098;28;19910;-73
2022/06/05 11:27:09;;;;;;;;;;;12.20;99.90;;;;;;4993878;28;20341;-73
2022/06/05 11:29:39;;;;;;;;;;;12.10;99.90;;;;;;4993670;28;19910;-74
2022/06/05 11:32:08;;;;;;;;;;;12.20;99.90;;;;;;4993487;28;19996;-74
2022/06/05 11:34:47;;;;;;;;;;;12.10;99.90;;;;;;4993932;28;19949;-74
2022/06/05 11:37:14;;;;;;;;;;;12.20;99.90;;;;;;5009071;28;20357;-74
2022/06/05 11:39:56;;;;;;;;;;;12.10;99.90;;;;;;4993709;28;19937;-74
2022/06/05 11:42:35;;;;;;;;;;;12.10;99.90;;;;;;4993730;28;20005;-74
2022/06/05 11:45:01;;;;;;;;;;;12.00;99.90;;;;;;4993858;28;20284;-76
2022/06/05 11:47:38;;;;;;;;;;;12.10;99.90;;;;;;4993366;28;20323;-75
2022/06/05 11:50:17;;;;;;;;;;;12.10;99.90;;;;;;4993978;28;19913;-74
2022/06/05 11:52:49;;;;;;;;;;;12.10;99.90;;;;;;4997382;28;19917;-74
2022/06/05 11:55:20;;;;;;;;;;;12.00;99.90;;;;;;4997532;28;20431;-74
2022/06/05 11:57:54;;;;;;;;;;;12.00;99.90;;;;;;4997520;28;19957;-74
2022/06/05 12:00:28;;;;;;;;;;;12.10;99.90;;;;;;4996971;28;19922;-74
2022/06/05 12:03:01;;;;;;;;;;;12.00;99.90;;;;;;4997295;28;19910;-74
2022/06/05 12:05:43;;;;;;;;;;;12.00;99.90;;;;;;4997592;28;19996;-74
2022/06/05 12:08:12;;;;;;;;;;;12.00;99.90;;;;;;4997558;28;19910;-75
2022/06/05 12:10:49;;;;;;;;;;;12.00;99.90;;;;;;5012280;28;20308;-75
2022/06/05 12:13:21;;;;;;;;;;;12.00;99.90;;;;;;4979723;28;19910;-75
2022/06/05 12:16:23;;;;;;;;;;;12.00;99.90;;;;;;4997018;28;19964;-74
2022/06/05 12:18:59;;;;;;;;;;;11.90;99.90;;;;;;4995019;28;19909;-74
2022/06/05 12:21:35;;;;;;;;;;;11.80;99.90;;;;;;4996703;28;19917;-76
2022/06/05 12:24:21;;;;;;;;;;;11.80;99.90;;;;;;4996963;28;19937;-75
2022/06/05 12:26:51;;;;;;;;;;;11.70;99.90;;;;;;4996724;28;19910;-75
2022/06/05 12:29:20;;;;;;;;;;;11.80;99.90;;;;;;4997024;28;19910;-76
2022/06/05 12:31:49;;;;;;;;;;;11.80;99.90;;;;;;4996698;28;20289;-75
2022/06/05 12:34:18;;;;;;;;;;;11.80;99.90;;;;;;4996639;28;20234;-73
2022/06/05 12:36:46;;;;;;;;;;;11.80;99.90;;;;;;4996714;28;19910;-76
2022/06/05 12:39:13;;;;;;;;;;;11.70;99.90;;;;;;4996692;28;19964;-75
2022/06/05 12:41:49;;;;;;;;;;;11.70;99.90;;;;;;4996392;28;19918;-76
2022/06/05 12:44:24;;;;;;;;;;;11.70;99.90;;;;;;4996753;28;19910;-76
2022/06/05 12:46:58;;;;;;;;;;;11.70;99.90;;;;;;4996399;28;19917;-76
2022/06/05 12:49:39;;;;;;;;;;;11.70;99.90;;;;;;4996640;28;19937;-76
2022/06/05 12:52:12;;;;;;;;;;;11.70;99.90;;;;;;4997151;28;19921;-75
2022/06/05 12:54:48;;;;;;;;;;;11.70;99.90;;;;;;4996596;28;20357;-74
2022/06/05 12:57:19;;;;;;;;;;;11.70;99.90;;;;;;4996373;28;19956;-76
2022/06/05 12:59:54;;;;;;;;;;;11.70;99.90;;;;;;4996206;28;19913;-75
2022/06/05 13:02:27;;;;;;;;;;;11.70;99.90;;;;;;4995236;28;19914;-75
2022/06/05 13:05:04;;;;;;;;;;;11.70;99.90;;;;;;4995764;28;19917;-75
2022/06/05 13:07:40;;;;;;;;;;;11.70;99.90;;;;;;4996009;28;19910;-74
2022/06/05 13:10:25;;;;;;;;;;;11.70;99.90;;;;;;4995880;28;20369;-73
2022/06/05 13:12:52;;;;;;;;;;;11.70;99.90;;;;;;4996090;28;19960;-72
2022/06/05 13:15:25;;;;;;;;;;;11.70;99.90;;;;;;4996090;28;19910;-72
2022/06/05 13:17:51;;;;;;;;;;;11.70;99.90;;;;;;4995648;28;20345;-73
2022/06/05 13:20:36;;;;;;;;;;;11.70;99.90;;;;;;4995565;28;19914;-73
2022/06/05 13:23:06;;;;;;;;;;;11.70;99.90;;;;;;4995988;28;19916;-73
2022/06/05 13:25:35;;;;;;;;;;;11.60;99.90;;;;;;4995767;28;19910;-73
2022/06/05 13:28:13;;;;;;;;;;;11.60;99.90;;;;;;4996004;28;20000;-73
2022/06/05 13:31:02;;;;;;;;;;;11.60;99.90;;;;;;4995872;28;19956;-72
2022/06/05 13:33:42;;;;;;;;;;;11.60;99.90;;;;;;4995405;28;20384;-73
2022/06/05 13:36:30;;;;;;;;;;;11.60;99.90;;;;;;4995883;28;19910;-73
2022/06/05 13:39:22;;;;;;;;;;;11.60;99.90;;;;;;4995731;28;19914;-73
2022/06/05 13:42:07;;;;;;;;;;;11.60;99.90;;;;;;4995309;28;19972;-74
2022/06/05 13:44:34;;;;;;;;;;;11.60;99.90;;;;;;4995684;28;20001;-74
2022/06/05 13:47:21;;;;;;;;;;;11.60;99.90;;;;;;4995512;28;19961;-74
2022/06/05 13:50:03;;;;;;;;;;;11.60;99.90;;;;;;4995409;28;20416;-74
2022/06/05 13:52:45;;;;;;;;;;;11.60;99.90;;;;;;4995384;28;19928;-74
2022/06/05 13:55:21;;;;;;;;;;;11.60;99.90;;;;;;4995332;28;19913;-74
2022/06/05 13:58:05;;;;;;;;;;;11.60;99.90;;;;;;4995162;28;19913;-73
2022/06/05 14:00:34;;;;;;;;;;;11.60;99.90;;;;;;4995364;28;19976;-74
2022/06/05 14:03:03;;;;;;;;;;;11.60;99.90;;;;;;4995127;28;19916;-74
2022/06/05 14:05:32;;;;;;;;;;;11.60;99.90;;;;;;4995054;28;19996;-74
2022/06/05 14:08:04;;;;;;;;;;;11.60;99.90;;;;;;4994942;28;19910;-75
2022/06/05 14:10:32;;;;;;;;;;;11.60;99.90;;;;;;4994896;28;19993;-74
2022/06/05 14:13:05;;;;;;;;;;;11.60;99.90;;;;;;4994872;28;19910;-74
2022/06/05 14:15:43;;;;;;;;;;;11.60;99.90;;;;;;4994954;28;19917;-74
2022/06/05 14:18:22;;;;;;;;;;;11.60;99.90;;;;;;4995034;28;19909;-74
2022/06/05 14:20:50;;;;;;;;;;;11.60;99.90;;;;;;4994955;28;19925;-75
2022/06/05 14:23:21;;;;;;;;;;;11.50;99.90;;;;;;4994949;28;19916;-74
2022/06/05 14:25:51;;;;;;;;;;;11.50;99.90;;;;;;4994268;28;19910;-75
2022/06/05 14:28:19;;;;;;;;;;;11.50;99.90;;;;;;4994882;28;19909;-74
2022/06/05 14:30:57;;;;;;;;;;;11.40;99.90;;;;;;4994774;28;19910;-75
2022/06/05 14:33:28;;;;;;;;;;;11.40;99.90;;;;;;4994811;28;20261;-74
2022/06/05 14:35:56;;;;;;;;;;;11.40;99.90;;;;;;4994361;28;19910;-74
2022/06/05 14:38:42;;;;;;;;;;;11.40;99.90;;;;;;4994632;28;19914;-74
2022/06/05 14:41:15;;;;;;;;;;;11.40;99.90;;;;;;4994229;28;19917;-74
2022/06/05 14:43:48;;;;;;;;;;;11.40;99.90;;;;;;4994398;28;19980;-75
2022/06/05 14:46:32;;;;;;;;;;;11.50;99.90;;;;;;4994527;28;19996;-74
2022/06/05 14:49:07;;;;;;;;;;;11.40;99.90;;;;;;4994413;28;19917;-74
2022/06/05 14:51:38;;;;;;;;;;;11.40;99.90;;;;;;4994071;28;19910;-74
2022/06/05 14:54:13;;;;;;;;;;;11.40;99.90;;;;;;4994233;28;20369;-73
2022/06/05 14:59:44;;;;;;;;;;;11.40;99.90;;;;;;4994157;28;19921;-73
2022/06/05 15:02:11;;;;;;;;;;;11.40;99.90;;;;;;4994220;28;19920;-73
2022/06/05 15:04:37;;;;;;;;;;;11.40;99.90;;;;;;4994356;28;19917;-73